createdAt,value
2023-04-13T00:01:27.740Z,6.98
2023-04-13T00:03:58.168Z,7.00
2023-04-13T00:06:28.755Z,7.02
2023-04-13T00:08:58.949Z,7.06
2023-04-13T00:11:28.207Z,7.07
2023-04-13T00:13:59.183Z,7.08
2023-04-13T00:16:31.868Z,7.06
2023-04-13T00:19:00.143Z,7.03
2023-04-13T00:21:28.816Z,7.00
2023-04-13T00:24:01.659Z,6.96
2023-04-13T00:26:31.621Z,6.93
2023-04-13T00:29:00.778Z,6.89
2023-04-13T00:31:29.558Z,6.85
2023-04-13T00:34:02.784Z,6.79
2023-04-13T00:36:31.852Z,6.75
2023-04-13T00:39:00.102Z,6.71
2023-04-13T00:41:28.849Z,6.66
2023-04-13T00:43:58.493Z,6.63
2023-04-13T00:46:27.743Z,6.61
2023-04-13T00:49:02.391Z,6.59
2023-04-13T00:51:31.031Z,6.56
2023-04-13T00:53:59.443Z,6.53
2023-04-13T00:56:42.958Z,6.51
2023-04-13T00:59:11.515Z,6.50
2023-04-13T01:01:56.520Z,6.49
2023-04-13T01:04:27.525Z,6.48
2023-04-13T01:07:07.517Z,6.47
2023-04-13T01:09:41.478Z,6.44
2023-04-13T01:12:14.164Z,6.40
2023-04-13T01:15:12.965Z,6.42
2023-04-13T01:17:56.909Z,6.44
2023-04-13T01:20:28.936Z,6.46
2023-04-13T01:22:59.026Z,6.50
2023-04-13T01:25:50.218Z,6.55
2023-04-13T01:28:19.605Z,6.57
2023-04-13T01:30:48.165Z,6.57
2023-04-13T01:33:16.520Z,6.62
2023-04-13T01:35:54.451Z,6.69
2023-04-13T01:38:24.782Z,6.76
2023-04-13T01:40:54.987Z,6.82
2023-04-13T01:43:23.773Z,6.84
2023-04-13T01:46:11.480Z,6.87
2023-04-13T01:48:50.583Z,6.91
2023-04-13T01:51:42.975Z,6.93
2023-04-13T01:54:16.254Z,6.94
2023-04-13T01:56:46.709Z,6.96
2023-04-13T01:59:16.635Z,6.97
2023-04-13T02:01:45.386Z,6.99
2023-04-13T02:04:14.817Z,6.97
2023-04-13T02:06:46.745Z,6.95
2023-04-13T02:09:15.594Z,6.94
2023-04-13T02:11:48.049Z,6.91
2023-04-13T02:14:18.811Z,6.87
2023-04-13T02:16:50.770Z,6.84
2023-04-13T02:19:20.366Z,6.82
2023-04-13T02:21:57.411Z,6.82
2023-04-13T02:24:30.298Z,6.82
2023-04-13T02:27:02.053Z,6.82
2023-04-13T02:29:30.268Z,6.81
2023-04-13T02:32:01.640Z,6.82
2023-04-13T02:34:33.530Z,6.80
2023-04-13T02:37:02.418Z,6.79
2023-04-13T02:39:39.614Z,6.77
2023-04-13T02:42:11.798Z,6.71
2023-04-13T02:44:40.774Z,6.66
2023-04-13T02:47:13.420Z,6.63
2023-04-13T02:49:44.570Z,6.59
2023-04-13T02:52:18.548Z,6.57
2023-04-13T02:54:54.790Z,6.54
2023-04-13T02:57:25.990Z,6.54
2023-04-13T02:59:54.386Z,6.53
2023-04-13T03:02:27.926Z,6.50
2023-04-13T03:04:56.786Z,6.50
2023-04-13T03:07:26.007Z,6.50
2023-04-13T03:09:55.491Z,6.46
2023-04-13T03:12:26.990Z,6.42
2023-04-13T03:14:54.956Z,6.38
2023-04-13T03:17:23.462Z,6.30
2023-04-13T03:19:52.321Z,6.22
2023-04-13T03:22:21.806Z,6.18
2023-04-13T03:24:50.993Z,6.19
2023-04-13T03:27:29.952Z,6.22
2023-04-13T03:29:58.019Z,6.22
2023-04-13T03:32:33.081Z,6.22
2023-04-13T03:35:02.227Z,6.22
2023-04-13T03:37:32.776Z,6.23
2023-04-13T03:40:11.481Z,6.26
2023-04-13T03:42:46.738Z,6.26
2023-04-13T03:45:19.741Z,6.24
2023-04-13T03:47:48.605Z,6.23
2023-04-13T03:50:17.667Z,6.21
2023-04-13T03:52:47.240Z,6.18
2023-04-13T03:55:15.699Z,6.17
2023-04-13T03:57:47.741Z,6.15
2023-04-13T04:00:18.645Z,6.14
2023-04-13T04:02:57.486Z,6.15
2023-04-13T04:05:31.913Z,6.16
2023-04-13T04:08:03.693Z,6.19
2023-04-13T04:10:32.599Z,6.21
2023-04-13T04:13:00.817Z,6.24
2023-04-13T04:15:29.703Z,6.25
2023-04-13T04:18:02.130Z,6.25
2023-04-13T04:20:31.072Z,6.26
2023-04-13T04:23:01.301Z,6.29
2023-04-13T04:25:33.623Z,6.34
2023-04-13T04:28:02.638Z,6.37
2023-04-13T04:30:33.869Z,6.40
2023-04-13T04:33:03.650Z,6.42
2023-04-13T04:35:35.856Z,6.44
2023-04-13T04:38:05.451Z,6.48
2023-04-13T04:40:38.105Z,6.53
2023-04-13T04:43:07.770Z,6.57
2023-04-13T04:45:43.825Z,6.58
2023-04-13T04:48:13.642Z,6.62
2023-04-13T04:50:45.130Z,6.69
2023-04-13T04:53:16.054Z,6.75
2023-04-13T04:55:44.092Z,6.79
2023-04-13T04:58:19.715Z,6.82
2023-04-13T05:00:52.637Z,6.83
2023-04-13T05:03:32.380Z,6.87
2023-04-13T05:06:09.614Z,6.90
2023-04-13T05:08:39.520Z,6.95
2023-04-13T05:11:08.592Z,6.99
2023-04-13T05:13:37.000Z,7.00
2023-04-13T05:16:20.798Z,7.04
2023-04-13T05:18:52.482Z,7.11
2023-04-13T05:21:35.061Z,7.19
2023-04-13T05:24:04.534Z,7.21
2023-04-13T05:26:34.345Z,7.25
2023-04-13T05:29:04.372Z,7.24
2023-04-13T05:31:36.559Z,7.22
2023-04-13T05:34:06.052Z,7.24
2023-04-13T05:36:34.247Z,7.25
2023-04-13T05:39:06.036Z,7.24
2023-04-13T05:41:34.585Z,7.24
2023-04-13T05:44:05.310Z,7.22
2023-04-13T05:46:34.190Z,7.20
2023-04-13T05:49:05.051Z,7.19
2023-04-13T05:51:34.825Z,7.21
2023-04-13T05:54:03.196Z,7.25
2023-04-13T05:56:31.767Z,7.31
2023-04-13T05:59:01.230Z,7.33
2023-04-13T06:01:31.680Z,7.36
2023-04-13T06:04:01.212Z,7.38
2023-04-13T06:06:30.635Z,7.38
2023-04-13T06:08:59.058Z,7.37
2023-04-13T06:11:27.660Z,7.38
2023-04-13T06:13:58.091Z,7.44
2023-04-13T06:16:27.525Z,7.49
2023-04-13T06:18:56.110Z,7.54
2023-04-13T06:21:32.394Z,7.59
2023-04-13T06:24:00.336Z,7.65
2023-04-13T06:26:38.485Z,7.72
2023-04-13T06:29:07.406Z,7.79
2023-04-13T06:31:43.300Z,7.88
2023-04-13T06:34:14.755Z,7.96
2023-04-13T06:36:45.201Z,8.02
2023-04-13T06:39:15.857Z,8.09
2023-04-13T06:41:48.100Z,8.19
2023-04-13T06:44:22.079Z,8.31
2023-04-13T06:46:55.829Z,8.41
2023-04-13T06:49:33.297Z,8.50
2023-04-13T06:52:02.491Z,8.59
2023-04-13T06:54:31.001Z,8.72
2023-04-13T06:57:03.880Z,8.86
2023-04-13T06:59:32.296Z,9.00
2023-04-13T07:02:01.018Z,9.11
2023-04-13T07:04:33.179Z,9.23
2023-04-13T07:07:02.947Z,9.34
2023-04-13T07:09:31.921Z,9.45
2023-04-13T07:12:03.997Z,9.56
2023-04-13T07:14:36.248Z,9.63
2023-04-13T07:17:05.536Z,9.65
2023-04-13T07:19:46.016Z,9.66
2023-04-13T07:22:14.751Z,9.72
2023-04-13T07:24:43.572Z,9.79
2023-04-13T07:27:15.607Z,9.89
2023-04-13T07:29:44.237Z,9.98
2023-04-13T07:32:15.797Z,10.05
2023-04-13T07:34:46.425Z,10.04
2023-04-13T07:37:15.289Z,10.01
2023-04-13T07:39:43.781Z,10.03
2023-04-13T07:42:12.617Z,10.12
2023-04-13T07:44:56.684Z,10.22
2023-04-13T07:47:25.576Z,10.32
2023-04-13T07:49:56.804Z,10.40
2023-04-13T07:52:25.836Z,10.43
2023-04-13T07:54:54.318Z,10.43
2023-04-13T07:57:23.765Z,10.44
2023-04-13T07:59:57.209Z,10.46
2023-04-13T08:02:25.716Z,10.51
2023-04-13T08:06:57.448Z,10.62
2023-04-13T08:09:27.351Z,10.65
2023-04-13T08:11:56.162Z,10.69
2023-04-13T08:14:25.869Z,10.78
2023-04-13T08:16:55.592Z,10.88
2023-04-13T08:19:24.474Z,10.98
2023-04-13T08:21:55.853Z,11.07
2023-04-13T08:24:26.164Z,11.16
2023-04-13T08:26:58.943Z,11.27
2023-04-13T08:29:28.089Z,11.39
2023-04-13T08:31:58.404Z,11.54
2023-04-13T08:34:28.284Z,11.64
2023-04-13T08:36:57.517Z,11.70
2023-04-13T08:39:27.426Z,11.81
2023-04-13T08:41:55.919Z,11.90
2023-04-13T08:44:24.515Z,11.96
2023-04-13T08:46:58.728Z,12.02
2023-04-13T08:49:32.460Z,12.09
2023-04-13T08:52:09.277Z,12.18
2023-04-13T08:54:41.635Z,12.24
2023-04-13T08:57:18.152Z,12.30
2023-04-13T08:59:46.678Z,12.36
2023-04-13T09:02:15.032Z,12.44
2023-04-13T09:04:58.114Z,12.56
2023-04-13T09:07:30.936Z,12.69
2023-04-13T09:10:02.832Z,12.80
2023-04-13T09:12:32.672Z,12.89
2023-04-13T09:15:03.185Z,13.02
2023-04-13T09:17:40.230Z,13.15
2023-04-13T09:20:18.696Z,13.28
2023-04-13T09:22:52.157Z,13.42
2023-04-13T09:25:29.647Z,13.52
2023-04-13T09:27:59.125Z,13.60
2023-04-13T09:30:28.100Z,13.64
2023-04-13T09:33:07.837Z,13.64
2023-04-13T09:35:36.930Z,13.67
2023-04-13T09:38:07.620Z,13.74
2023-04-13T09:40:39.408Z,13.81
2023-04-13T09:43:09.839Z,13.93
2023-04-13T09:45:40.921Z,14.09
2023-04-13T09:48:21.590Z,14.27
2023-04-13T09:51:05.591Z,14.47
2023-04-13T09:53:46.675Z,14.60
2023-04-13T09:56:16.348Z,14.74
2023-04-13T09:58:49.045Z,14.85
2023-04-13T10:01:19.102Z,14.96
2023-04-13T10:03:48.138Z,15.00
2023-04-13T10:06:16.341Z,14.97
2023-04-13T10:08:46.539Z,14.94
2023-04-13T10:11:15.662Z,14.92
2023-04-13T10:13:53.866Z,14.94
2023-04-13T10:16:30.296Z,15.00
2023-04-13T10:19:02.972Z,15.05
2023-04-13T10:21:34.062Z,15.12
2023-04-13T10:24:11.471Z,15.26
2023-04-13T10:26:41.697Z,15.41
2023-04-13T10:29:11.784Z,15.54
2023-04-13T10:31:47.857Z,15.61
2023-04-13T10:34:27.302Z,15.66
2023-04-13T10:36:58.959Z,15.64
2023-04-13T10:39:28.967Z,15.58
2023-04-13T10:42:01.631Z,15.50
2023-04-13T10:44:52.183Z,15.42
2023-04-13T10:47:21.810Z,15.27
2023-04-13T10:49:50.797Z,15.18
2023-04-13T10:52:19.090Z,15.10
2023-04-13T10:54:47.940Z,15.06
2023-04-13T10:57:21.116Z,15.11
2023-04-13T10:59:58.954Z,15.25
2023-04-13T11:02:32.541Z,15.47
2023-04-13T11:05:01.485Z,15.67
2023-04-13T11:07:31.643Z,15.90
2023-04-13T11:12:31.421Z,16.27
2023-04-13T11:15:03.984Z,16.44
2023-04-13T11:17:33.121Z,16.55
2023-04-13T11:20:02.381Z,16.71
2023-04-13T11:22:36.547Z,16.92
2023-04-13T11:25:07.624Z,17.18
2023-04-13T11:27:35.885Z,17.47
2023-04-13T11:30:06.979Z,17.73
2023-04-13T11:32:38.309Z,17.77
2023-04-13T11:35:10.243Z,17.69
2023-04-13T11:37:40.293Z,17.62
2023-04-13T11:40:17.315Z,17.54
2023-04-13T11:42:49.497Z,17.46
2023-04-13T11:45:20.467Z,17.27
2023-04-13T11:47:50.674Z,17.12
2023-04-13T11:50:19.473Z,17.11
2023-04-13T11:52:48.194Z,17.21
2023-04-13T11:55:23.332Z,17.34
2023-04-13T11:57:53.547Z,17.56
2023-04-13T12:00:26.888Z,17.83
2023-04-13T12:03:02.382Z,17.99
2023-04-13T12:05:33.253Z,17.92
2023-04-13T12:08:08.608Z,17.74
2023-04-13T12:10:45.281Z,17.42
2023-04-13T12:13:35.539Z,17.05
2023-04-13T12:16:16.363Z,16.71
2023-04-13T12:18:47.902Z,16.45
2023-04-13T12:21:20.414Z,16.30
2023-04-13T12:23:58.737Z,16.20
2023-04-13T12:27:16.956Z,16.14
2023-04-13T12:29:29.770Z,16.08
2023-04-13T12:32:04.100Z,16.04
2023-04-13T12:34:32.316Z,16.00
2023-04-13T12:37:00.625Z,15.93
2023-04-13T12:39:28.797Z,15.84
2023-04-13T12:41:56.924Z,15.77
2023-04-13T12:44:27.279Z,15.72
2023-04-13T12:46:55.515Z,15.68
2023-04-13T12:49:23.475Z,15.64
2023-04-13T12:51:51.900Z,15.63
2023-04-13T12:54:20.508Z,15.65
2023-04-13T12:56:48.494Z,15.66
2023-04-13T12:59:18.249Z,15.66
2023-04-13T13:01:50.235Z,15.66
2023-04-13T13:04:19.324Z,15.65
2023-04-13T13:06:48.487Z,15.68
2023-04-13T13:09:17.006Z,15.73
2023-04-13T13:11:45.210Z,15.74
2023-04-13T13:14:13.500Z,15.74
2023-04-13T13:16:41.892Z,15.74
2023-04-13T13:19:10.493Z,15.74
2023-04-13T13:21:40.973Z,15.76
2023-04-13T13:24:09.208Z,15.77
2023-04-13T13:27:00.167Z,15.72
2023-04-13T13:29:28.143Z,15.69
2023-04-13T13:31:59.948Z,15.67
2023-04-13T13:34:28.157Z,15.63
2023-04-13T13:36:57.020Z,15.61
2023-04-13T13:39:28.138Z,15.60
2023-04-13T13:41:57.416Z,15.59
2023-04-13T13:44:25.447Z,15.63
2023-04-13T13:46:53.634Z,15.72
2023-04-13T13:49:22.759Z,15.84
2023-04-13T13:52:09.891Z,15.99
2023-04-13T13:54:46.406Z,16.11
2023-04-13T13:57:14.424Z,16.22
2023-04-13T13:59:42.857Z,16.26
2023-04-13T14:02:11.039Z,16.27
2023-04-13T14:04:39.352Z,16.26
2023-04-13T14:07:08.683Z,16.24
2023-04-13T14:09:37.795Z,16.20
2023-04-13T14:12:06.351Z,16.18
2023-04-13T14:14:34.498Z,16.22
2023-04-13T14:17:07.249Z,16.29
2023-04-13T14:19:36.674Z,16.36
2023-04-13T14:22:05.805Z,16.46
2023-04-13T14:24:37.917Z,16.57
2023-04-13T14:27:06.909Z,16.63
2023-04-13T14:29:35.186Z,16.66
2023-04-13T14:32:08.603Z,16.75
2023-04-13T14:34:37.688Z,16.97
2023-04-13T14:37:06.565Z,17.28
2023-04-13T14:39:36.906Z,17.71
2023-04-13T14:42:06.402Z,18.31
2023-04-13T14:44:34.999Z,19.18
2023-04-13T14:47:05.911Z,20.38
2023-04-13T14:49:36.370Z,21.83
2023-04-13T14:52:04.565Z,23.46
2023-04-13T14:54:39.120Z,25.32
2023-04-13T14:57:07.485Z,27.28
2023-04-13T14:59:35.517Z,29.05
2023-04-13T15:02:03.716Z,30.71
2023-04-13T15:04:32.923Z,32.13
2023-04-13T15:07:01.283Z,33.44
2023-04-13T15:09:29.343Z,34.65
2023-04-13T15:12:01.486Z,35.85
2023-04-13T15:14:31.500Z,36.88
2023-04-13T15:16:59.536Z,37.46
2023-04-13T15:19:28.655Z,37.63
2023-04-13T15:21:56.544Z,38.22
2023-04-13T15:24:24.660Z,38.88
2023-04-13T15:26:52.817Z,39.31
2023-04-13T15:29:21.757Z,39.71
2023-04-13T15:31:49.807Z,39.72
2023-04-13T15:34:17.896Z,39.41
2023-04-13T15:36:46.973Z,38.92
2023-04-13T15:39:15.043Z,37.98
2023-04-13T15:41:43.281Z,36.83
2023-04-13T15:44:12.476Z,35.83
2023-04-13T15:46:41.893Z,34.74
2023-04-13T15:49:11.024Z,33.53
2023-04-13T15:51:39.761Z,32.37
2023-04-13T15:54:07.830Z,31.21
2023-04-13T15:56:37.149Z,30.09
2023-04-13T15:59:06.196Z,29.03
2023-04-13T16:01:55.283Z,28.10
2023-04-13T16:04:23.783Z,27.16
2023-04-13T16:07:05.115Z,26.43
2023-04-13T16:09:43.465Z,25.70
2023-04-13T16:12:12.135Z,25.07
2023-04-13T16:14:45.371Z,24.47
2023-04-13T16:17:18.647Z,23.88
2023-04-13T16:19:50.790Z,23.56
2023-04-13T16:22:18.863Z,23.52
2023-04-13T16:24:49.734Z,23.78
2023-04-13T16:27:19.594Z,24.24
2023-04-13T16:29:47.907Z,24.84
2023-04-13T16:32:20.290Z,25.46
2023-04-13T16:34:49.065Z,25.99
2023-04-13T16:37:17.238Z,26.38
2023-04-13T16:39:46.878Z,26.46
2023-04-13T16:42:17.522Z,26.26
2023-04-13T16:44:45.634Z,25.82
2023-04-13T16:47:15.609Z,25.27
2023-04-13T16:49:43.638Z,24.70
2023-04-13T16:52:11.777Z,24.20
2023-04-13T16:54:44.167Z,23.71
2023-04-13T16:57:12.365Z,23.21
2023-04-13T16:59:40.651Z,22.75
2023-04-13T17:02:15.378Z,22.32
2023-04-13T17:04:54.746Z,21.88
2023-04-13T17:07:26.954Z,21.49
2023-04-13T17:10:15.098Z,21.07
2023-04-13T17:12:43.281Z,20.71
2023-04-13T17:15:11.533Z,20.39
2023-04-13T17:17:47.423Z,20.09
2023-04-13T17:20:16.995Z,19.80
2023-04-13T17:22:45.406Z,19.52
2023-04-13T17:25:16.295Z,19.24
2023-04-13T17:27:44.812Z,18.95
2023-04-13T17:30:13.754Z,18.71
2023-04-13T17:32:57.274Z,18.45
2023-04-13T17:35:25.821Z,18.20
2023-04-13T17:37:53.913Z,17.99
2023-04-13T17:40:26.280Z,17.79
2023-04-13T17:42:55.736Z,17.62
2023-04-13T17:45:23.918Z,17.43
2023-04-13T17:47:52.351Z,17.26
2023-04-13T17:50:21.412Z,17.12
2023-04-13T17:52:50.375Z,16.98
2023-04-13T17:55:23.733Z,16.81
2023-04-13T17:57:52.294Z,16.66
2023-04-13T18:00:21.225Z,16.51
2023-04-13T18:02:58.532Z,16.37
2023-04-13T18:05:27.860Z,16.22
2023-04-13T18:07:56.392Z,16.09
2023-04-13T18:10:25.565Z,15.99
2023-04-13T18:12:53.773Z,15.88
2023-04-13T18:15:22.649Z,15.79
2023-04-13T18:17:50.707Z,15.71
2023-04-13T18:20:24.536Z,15.64
2023-04-13T18:22:53.512Z,15.58
2023-04-13T18:25:21.539Z,15.52
2023-04-13T18:27:49.820Z,15.46
2023-04-13T18:30:23.513Z,15.39
2023-04-13T18:32:52.845Z,15.32
2023-04-13T18:35:21.083Z,15.28
2023-04-13T18:37:54.046Z,15.23
2023-04-13T18:40:22.999Z,15.18
2023-04-13T18:42:51.014Z,15.12
2023-04-13T18:45:21.372Z,15.08
2023-04-13T18:47:49.623Z,15.01
2023-04-13T18:50:17.612Z,14.94
2023-04-13T18:52:46.170Z,14.88
2023-04-13T18:55:15.217Z,14.81
2023-04-13T18:57:51.452Z,14.74
2023-04-13T19:00:19.970Z,14.66
2023-04-13T19:02:49.669Z,14.59
2023-04-13T19:05:18.896Z,14.52
2023-04-13T19:08:00.485Z,14.47
2023-04-13T19:10:31.634Z,14.41
2023-04-13T19:12:59.879Z,14.33
2023-04-13T19:15:36.167Z,14.24
2023-04-13T19:18:06.633Z,14.13
2023-04-13T19:20:35.708Z,14.08
2023-04-13T19:23:03.903Z,14.00
2023-04-13T19:25:35.850Z,13.93
2023-04-13T19:28:04.521Z,13.88
2023-04-13T19:30:32.558Z,13.84
2023-04-13T19:33:01.983Z,13.80
2023-04-13T19:35:31.471Z,13.77
2023-04-13T19:37:59.588Z,13.74
2023-04-13T19:40:32.906Z,13.72
2023-04-13T19:43:01.568Z,13.69
2023-04-13T19:45:30.449Z,13.67
2023-04-13T19:47:59.534Z,13.63
2023-04-13T19:50:27.592Z,13.61
2023-04-13T19:52:55.906Z,13.56
2023-04-13T19:55:23.808Z,13.52
2023-04-13T19:57:51.979Z,13.48
2023-04-13T20:00:22.524Z,13.43
2023-04-13T20:02:58.753Z,13.36
2023-04-13T20:05:26.890Z,13.27
2023-04-13T20:07:54.804Z,13.25
2023-04-13T20:10:22.846Z,13.21
2023-04-13T20:12:53.051Z,13.17
2023-04-13T20:15:22.794Z,13.14
2023-04-13T20:17:52.325Z,13.11
2023-04-13T20:20:23.213Z,13.06
2023-04-13T20:24:13.400Z,13.02
2023-04-13T20:26:43.605Z,12.95
2023-04-13T20:29:12.824Z,12.92
2023-04-13T20:31:40.993Z,12.89
2023-04-13T20:34:10.359Z,12.86
2023-04-13T20:36:38.608Z,12.83
2023-04-13T20:39:09.454Z,12.80
2023-04-13T20:41:39.017Z,12.78
2023-04-13T20:44:09.905Z,12.76
2023-04-13T20:46:41.962Z,12.74
2023-04-13T20:49:12.016Z,12.72
2023-04-13T20:51:41.310Z,12.68
2023-04-13T20:54:10.158Z,12.64
2023-04-13T20:56:38.183Z,12.58
2023-04-13T20:59:07.438Z,12.53
2023-04-13T21:01:35.627Z,12.50
2023-04-13T21:04:05.021Z,12.49
2023-04-13T21:06:35.093Z,12.47
2023-04-13T21:09:05.486Z,12.44
2023-04-13T21:11:34.994Z,12.42
2023-04-13T21:14:04.341Z,12.39
2023-04-13T21:16:32.995Z,12.34
2023-04-13T21:19:06.489Z,12.30
2023-04-13T21:21:36.000Z,12.28
2023-04-13T21:24:04.213Z,12.26
2023-04-13T21:26:36.533Z,12.26
2023-04-13T21:29:04.611Z,12.26
2023-04-13T21:31:32.866Z,12.27
2023-04-13T21:34:03.968Z,12.27
2023-04-13T21:39:06.726Z,12.28
2023-04-13T21:41:35.515Z,12.27
2023-04-13T21:44:03.831Z,12.26
2023-04-13T21:46:33.040Z,12.26
2023-04-13T21:49:01.661Z,12.26
2023-04-13T21:51:30.046Z,12.27
2023-04-13T21:53:57.991Z,12.27
2023-04-13T21:56:25.980Z,12.27
2023-04-13T21:58:55.975Z,12.27
2023-04-13T22:01:24.255Z,12.26
2023-04-13T22:03:53.685Z,12.26
2023-04-13T22:06:21.964Z,12.25
2023-04-13T22:08:52.609Z,12.23
2023-04-13T22:11:21.021Z,12.22
2023-04-13T22:13:48.925Z,12.20
2023-04-13T22:16:19.379Z,12.20
2023-04-13T22:18:52.286Z,12.19
2023-04-13T22:21:20.809Z,12.18
2023-04-13T22:23:49.347Z,12.16
2023-04-13T22:26:17.326Z,12.16
2023-04-13T22:28:45.853Z,12.15
2023-04-13T22:31:19.080Z,12.14
2023-04-13T22:33:47.358Z,12.12
2023-04-13T22:36:19.908Z,12.07
2023-04-13T22:38:48.909Z,12.05
2023-04-13T22:41:17.328Z,12.03
2023-04-13T22:43:45.223Z,12.03
2023-04-13T22:46:14.367Z,12.02
2023-04-13T22:48:43.122Z,12.01
2023-04-13T22:51:11.677Z,12.00
2023-04-13T22:53:39.572Z,12.01
2023-04-13T22:56:08.448Z,12.01
2023-04-13T22:58:37.132Z,12.00
2023-04-13T23:01:05.342Z,12.00
2023-04-13T23:03:36.088Z,11.99
2023-04-13T23:06:05.644Z,11.99
2023-04-13T23:08:39.616Z,11.98
2023-04-13T23:11:09.479Z,11.97
2023-04-13T23:13:37.516Z,11.96
2023-04-13T23:16:13.311Z,11.95
2023-04-13T23:18:42.843Z,11.94
2023-04-13T23:21:12.100Z,11.93
2023-04-13T23:23:40.515Z,11.92
2023-04-13T23:26:09.095Z,11.91
2023-04-13T23:28:37.215Z,11.89
2023-04-13T23:31:06.880Z,11.88
2023-04-13T23:33:36.757Z,11.86
2023-04-13T23:36:05.443Z,11.84
2023-04-13T23:38:36.449Z,11.83
2023-04-13T23:41:06.313Z,11.80
2023-04-13T23:43:34.677Z,11.78
2023-04-13T23:46:03.003Z,11.76
2023-04-13T23:48:31.997Z,11.75
2023-04-13T23:50:59.888Z,11.73
2023-04-13T23:53:29.242Z,11.72
2023-04-13T23:55:57.415Z,11.71
2023-04-13T23:58:25.848Z,11.70
